createdAt,value
2018-02-01T00:00:35.651Z,977.21
2018-02-01T00:01:35.645Z,977.21
2018-02-01T00:02:35.639Z,977.21
2018-02-01T00:03:35.636Z,977.16
2018-02-01T00:04:35.630Z,977.12
2018-02-01T00:05:35.688Z,977.15
2018-02-01T00:06:35.695Z,977.12
2018-02-01T00:07:35.611Z,977.1
2018-02-01T00:08:35.607Z,977.12
2018-02-01T00:09:35.598Z,977.1
2018-02-01T00:10:35.601Z,977.12
2018-02-01T00:11:35.586Z,977.12
2018-02-01T00:12:35.582Z,977.12
2018-02-01T00:13:35.575Z,977.08
2018-02-01T00:14:35.569Z,977.1
2018-02-01T00:15:35.567Z,977.1
2018-02-01T00:16:35.556Z,977.08
2018-02-01T00:17:35.555Z,977.04
2018-02-01T00:18:35.547Z,977.07
2018-02-01T00:19:35.540Z,977.05
2018-02-01T00:20:35.534Z,977.05
2018-02-01T00:21:35.544Z,977.03
2018-02-01T00:22:35.522Z,977.07
2018-02-01T00:23:35.534Z,977.03
2018-02-01T00:24:35.511Z,977.03
2018-02-01T00:25:35.505Z,977.01
2018-02-01T00:26:35.503Z,977.01
2018-02-01T00:27:35.496Z,977.04
2018-02-01T00:28:35.490Z,977.07
2018-02-01T00:29:35.482Z,977.04
2018-02-01T00:30:35.726Z,977.05
2018-02-01T00:31:35.477Z,977.07
2018-02-01T00:32:35.464Z,977.03
2018-02-01T00:33:35.458Z,977
2018-02-01T00:34:35.454Z,977.04
2018-02-01T00:35:35.448Z,977.05
2018-02-01T00:36:35.442Z,977.03
2018-02-01T00:37:35.436Z,976.98
2018-02-01T00:38:35.433Z,976.98
2018-02-01T00:39:35.425Z,977
2018-02-01T00:40:35.422Z,976.99
2018-02-01T00:41:35.425Z,976.94
2018-02-01T00:42:35.412Z,977
2018-02-01T00:43:35.402Z,976.97
2018-02-01T00:44:35.396Z,977.04
2018-02-01T00:45:35.391Z,976.99
2018-02-01T00:46:35.388Z,977.06
2018-02-01T00:47:35.379Z,977.03
2018-02-01T00:48:35.372Z,977
2018-02-01T00:49:35.370Z,977.02
2018-02-01T00:50:35.367Z,977.02
2018-02-01T00:51:35.369Z,977
2018-02-01T00:52:35.358Z,977.02
2018-02-01T00:53:35.345Z,977.05
2018-02-01T00:54:35.339Z,977.06
2018-02-01T00:55:35.333Z,977.04
2018-02-01T00:56:35.328Z,977.06
2018-02-01T00:57:35.324Z,977.04
2018-02-01T00:58:35.320Z,977.03
2018-02-01T00:59:35.315Z,977.03
2018-02-01T01:00:35.306Z,977.07
2018-02-01T01:01:35.302Z,977.05
2018-02-01T01:02:35.299Z,977.03
2018-02-01T01:03:35.291Z,977.03
2018-02-01T01:04:35.284Z,977.06
2018-02-01T01:05:35.280Z,977.08
2018-02-01T01:06:35.277Z,977.1
2018-02-01T01:07:35.269Z,977.15
2018-02-01T01:08:35.263Z,977.07
2018-02-01T01:09:35.258Z,977.11
2018-02-01T01:10:35.252Z,977.13
2018-02-01T01:11:35.247Z,977.14
2018-02-01T01:12:35.240Z,977.13
2018-02-01T01:13:35.235Z,977.15
2018-02-01T01:14:35.230Z,977.14
2018-02-01T01:15:35.226Z,977.19
2018-02-01T01:16:35.219Z,977.15
2018-02-01T01:17:35.216Z,977.19
2018-02-01T01:18:35.209Z,977.19
2018-02-01T01:19:35.203Z,977.21
2018-02-01T01:20:35.197Z,977.25
2018-02-01T01:21:35.192Z,977.27
2018-02-01T01:22:35.186Z,977.23
2018-02-01T01:23:35.182Z,977.21
2018-02-01T01:24:35.176Z,977.21
2018-02-01T01:25:35.172Z,977.24
2018-02-01T01:26:35.168Z,977.25
2018-02-01T01:27:35.165Z,977.27
2018-02-01T01:28:35.157Z,977.35
2018-02-01T01:29:35.147Z,977.36
2018-02-01T01:30:35.143Z,977.4
2018-02-01T01:31:35.139Z,977.49
2018-02-01T01:32:35.133Z,977.54
2018-02-01T01:33:35.129Z,977.55
2018-02-01T01:34:35.121Z,977.61
2018-02-01T01:35:35.117Z,977.6
2018-02-01T01:36:35.110Z,977.6
2018-02-01T01:37:35.102Z,977.61
2018-02-01T01:38:35.100Z,977.68
2018-02-01T01:39:35.098Z,977.66
2018-02-01T01:40:35.084Z,977.57
2018-02-01T01:41:35.078Z,977.66
2018-02-01T01:42:35.071Z,977.67
2018-02-01T01:43:35.063Z,977.68
2018-02-01T01:44:35.057Z,977.65
2018-02-01T01:45:35.052Z,977.67
2018-02-01T01:46:35.044Z,977.68
2018-02-01T01:47:35.038Z,977.69
2018-02-01T01:48:35.032Z,977.65
2018-02-01T01:49:35.024Z,977.68
2018-02-01T01:50:35.019Z,977.67
2018-02-01T01:51:35.063Z,977.68
2018-02-01T01:52:35.006Z,977.68
2018-02-01T01:53:34.998Z,977.62
2018-02-01T01:54:34.991Z,977.62
2018-02-01T01:55:34.985Z,977.58
2018-02-01T01:56:34.978Z,977.55
2018-02-01T01:57:34.972Z,977.51
2018-02-01T01:58:34.964Z,977.54
2018-02-01T01:59:34.958Z,977.54
2018-02-01T02:00:34.958Z,977.52
2018-02-01T02:01:34.946Z,977.57
2018-02-01T02:02:34.939Z,977.59
2018-02-01T02:03:34.931Z,977.57
2018-02-01T02:04:34.923Z,977.58
2018-02-01T02:05:34.917Z,977.55
2018-02-01T02:06:34.911Z,977.53
2018-02-01T02:07:34.904Z,977.51
2018-02-01T02:08:34.898Z,977.55
2018-02-01T02:09:34.889Z,977.53
2018-02-01T02:10:34.884Z,977.6
2018-02-01T02:11:34.879Z,977.55
2018-02-01T02:12:34.871Z,977.54
2018-02-01T02:13:34.863Z,977.54
2018-02-01T02:14:34.857Z,977.53
2018-02-01T02:15:34.850Z,977.54
2018-02-01T02:16:34.845Z,977.53
2018-02-01T02:17:34.839Z,977.51
2018-02-01T02:18:34.830Z,977.5
2018-02-01T02:19:34.838Z,977.54
2018-02-01T02:20:34.816Z,977.48
2018-02-01T02:21:34.810Z,977.59
2018-02-01T02:22:34.804Z,977.55
2018-02-01T02:23:34.797Z,977.63
2018-02-01T02:24:34.791Z,977.6
2018-02-01T02:25:34.784Z,977.6
2018-02-01T02:26:34.783Z,977.53
2018-02-01T02:27:34.772Z,977.53
2018-02-01T02:28:34.763Z,977.58
2018-02-01T02:29:34.759Z,977.57
2018-02-01T02:30:34.751Z,977.65
2018-02-01T02:31:34.747Z,977.63
2018-02-01T02:32:34.737Z,977.63
2018-02-01T02:33:34.734Z,977.6
2018-02-01T02:34:34.725Z,977.48
2018-02-01T02:35:34.719Z,977.48
2018-02-01T02:36:34.710Z,977.49
2018-02-01T02:37:34.704Z,977.53
2018-02-01T02:38:34.700Z,977.53
2018-02-01T02:39:34.690Z,977.56
2018-02-01T02:40:34.685Z,977.55
2018-02-01T02:41:34.677Z,977.56
2018-02-01T02:42:34.670Z,977.61
2018-02-01T02:43:34.664Z,977.55
2018-02-01T02:44:34.657Z,977.6
2018-02-01T02:45:34.649Z,977.61
2018-02-01T02:46:34.643Z,977.58
2018-02-01T02:47:34.635Z,977.55
2018-02-01T02:48:34.635Z,977.53
2018-02-01T02:49:34.621Z,977.53
2018-02-01T02:50:34.613Z,977.52
2018-02-01T02:51:34.608Z,977.58
2018-02-01T02:52:34.599Z,977.57
2018-02-01T02:53:34.593Z,977.61
2018-02-01T02:54:34.594Z,977.61
2018-02-01T02:55:34.586Z,977.56
2018-02-01T02:56:34.572Z,977.6
2018-02-01T02:57:34.566Z,977.64
2018-02-01T02:58:34.558Z,977.58
2018-02-01T02:59:34.551Z,977.53
2018-02-01T03:00:34.544Z,977.55
2018-02-01T03:01:36.140Z,977.57
2018-02-01T03:02:34.529Z,977.54
2018-02-01T03:03:34.523Z,977.58
2018-02-01T03:04:34.516Z,977.57
2018-02-01T03:05:34.510Z,977.59
2018-02-01T03:06:34.509Z,977.54
2018-02-01T03:07:34.504Z,977.57
2018-02-01T03:08:34.489Z,977.6
2018-02-01T03:09:34.482Z,977.56
2018-02-01T03:10:34.473Z,977.59
2018-02-01T03:11:34.468Z,977.56
2018-02-01T03:12:34.461Z,977.55
2018-02-01T03:13:34.454Z,977.56
2018-02-01T03:14:34.458Z,977.54
2018-02-01T03:15:34.451Z,977.56
2018-02-01T03:16:34.442Z,977.55
2018-02-01T03:17:34.435Z,977.53
2018-02-01T03:18:34.417Z,977.6
2018-02-01T03:19:34.411Z,977.55
2018-02-01T03:20:34.410Z,977.58
2018-02-01T03:21:34.396Z,977.57
2018-02-01T03:22:34.389Z,977.53
2018-02-01T03:23:34.387Z,977.48
2018-02-01T03:24:34.375Z,977.43
2018-02-01T03:25:34.379Z,977.42
2018-02-01T03:26:34.362Z,977.44
2018-02-01T03:27:34.354Z,977.43
2018-02-01T03:28:34.347Z,977.4
2018-02-01T03:29:34.345Z,977.46
2018-02-01T03:30:34.337Z,977.41
2018-02-01T03:31:34.327Z,977.39
2018-02-01T03:32:34.320Z,977.37
2018-02-01T03:33:34.312Z,977.4
2018-02-01T03:34:34.305Z,977.39
2018-02-01T03:35:34.300Z,977.41
2018-02-01T03:36:34.291Z,977.43
2018-02-01T03:37:34.285Z,977.4
2018-02-01T03:38:34.277Z,977.41
2018-02-01T03:39:34.268Z,977.37
2018-02-01T03:40:34.263Z,977.43
2018-02-01T03:41:34.258Z,977.34
2018-02-01T03:42:34.250Z,977.34
2018-02-01T03:43:34.249Z,977.31
2018-02-01T03:44:34.237Z,977.29
2018-02-01T03:45:34.230Z,977.27
2018-02-01T03:46:34.221Z,977.24
2018-02-01T03:47:34.216Z,977.24
2018-02-01T03:48:34.210Z,977.22
2018-02-01T03:49:34.201Z,977.22
2018-02-01T03:50:34.194Z,977.26
2018-02-01T03:51:34.189Z,977.24
2018-02-01T03:52:34.181Z,977.24
2018-02-01T03:53:34.181Z,977.25
2018-02-01T03:54:34.170Z,977.24
2018-02-01T03:55:34.160Z,977.26
2018-02-01T03:56:34.155Z,977.24
2018-02-01T03:57:34.152Z,977.28
2018-02-01T03:58:34.144Z,977.27
2018-02-01T03:59:34.136Z,977.3
2018-02-01T04:00:34.129Z,977.29
2018-02-01T04:01:34.121Z,977.29
2018-02-01T04:02:34.115Z,977.26
2018-02-01T04:03:34.112Z,977.25
2018-02-01T04:04:34.101Z,977.29
2018-02-01T04:05:34.094Z,977.26
2018-02-01T04:06:34.088Z,977.26
2018-02-01T04:07:34.083Z,977.33
2018-02-01T04:08:34.078Z,977.34
2018-02-01T04:09:34.069Z,977.34
2018-02-01T04:10:34.074Z,977.3
2018-02-01T04:11:34.057Z,977.29
2018-02-01T04:12:34.049Z,977.29
2018-02-01T04:13:34.047Z,977.26
2018-02-01T04:14:34.037Z,977.27
2018-02-01T04:15:34.031Z,977.21
2018-02-01T04:16:34.023Z,977.26
2018-02-01T04:17:34.017Z,977.22
2018-02-01T04:18:34.009Z,977.25
2018-02-01T04:19:34.006Z,977.27
2018-02-01T04:20:33.997Z,977.27
2018-02-01T04:21:33.991Z,977.27
2018-02-01T04:22:33.992Z,977.26
2018-02-01T04:23:33.975Z,977.23
2018-02-01T04:24:33.982Z,977.21
2018-02-01T04:25:33.969Z,977.18
2018-02-01T04:26:33.957Z,977.2
2018-02-01T04:27:33.952Z,977.14
2018-02-01T04:28:33.952Z,977.14
2018-02-01T04:29:33.938Z,977.13
2018-02-01T04:30:33.973Z,977.11
2018-02-01T04:31:33.925Z,977.09
2018-02-01T04:32:33.926Z,977.12
2018-02-01T04:33:33.918Z,977.08
2018-02-01T04:34:33.904Z,977.09
2018-02-01T04:35:33.902Z,977.11
2018-02-01T04:36:33.896Z,977.08
2018-02-01T04:37:33.885Z,977.11
2018-02-01T04:38:33.879Z,977.09
2018-02-01T04:39:33.871Z,977.11
2018-02-01T04:40:33.866Z,977.08
2018-02-01T04:41:33.856Z,977.08
2018-02-01T04:42:33.858Z,977.07
2018-02-01T04:43:33.845Z,977.03
2018-02-01T04:44:33.838Z,977.06
2018-02-01T04:45:33.831Z,977.01
2018-02-01T04:46:33.830Z,976.98
2018-02-01T04:47:33.818Z,976.97
2018-02-01T04:48:33.812Z,977.04
2018-02-01T04:49:33.804Z,977.03
2018-02-01T04:50:33.799Z,977.06
2018-02-01T04:51:33.794Z,977.05
2018-02-01T04:52:33.784Z,977.02
2018-02-01T04:53:33.779Z,977.06
2018-02-01T04:54:33.770Z,977.03
2018-02-01T04:55:33.765Z,977.02
2018-02-01T04:56:33.757Z,977.05
2018-02-01T04:57:33.751Z,977.07
2018-02-01T04:58:33.747Z,977.07
2018-02-01T04:59:33.773Z,977.08
2018-02-01T05:00:33.730Z,977.05
2018-02-01T05:01:33.724Z,977.06
2018-02-01T05:02:33.718Z,977.04
2018-02-01T05:03:33.709Z,977.07
2018-02-01T05:04:33.704Z,977.01
2018-02-01T05:05:33.698Z,977.03
2018-02-01T05:06:33.694Z,977.05
2018-02-01T05:07:33.694Z,977.01
2018-02-01T05:08:33.675Z,976.97
2018-02-01T05:09:33.668Z,977.03
2018-02-01T05:10:33.662Z,977.02
2018-02-01T05:11:33.711Z,977.07
2018-02-01T05:12:33.654Z,977.08
2018-02-01T05:13:33.650Z,977.13
2018-02-01T05:14:33.637Z,977.14
2018-02-01T05:15:33.639Z,977.14
2018-02-01T05:16:33.620Z,977.16
2018-02-01T05:17:33.623Z,977.13
2018-02-01T05:18:33.606Z,977.1
2018-02-01T05:19:33.601Z,977.09
2018-02-01T05:20:33.593Z,977.1
2018-02-01T05:21:33.587Z,977.06
2018-02-01T05:22:33.578Z,977.05
2018-02-01T05:23:33.577Z,977.05
2018-02-01T05:24:33.571Z,977.09
2018-02-01T05:25:33.560Z,977.12
2018-02-01T05:26:33.553Z,977.09
2018-02-01T05:27:33.545Z,977.16
2018-02-01T05:28:33.539Z,977.09
2018-02-01T05:29:33.532Z,977.07
2018-02-01T05:30:33.527Z,977.04
2018-02-01T05:31:33.517Z,977.01
2018-02-01T05:32:33.517Z,976.98
2018-02-01T05:33:33.506Z,976.98
2018-02-01T05:34:33.498Z,976.98
2018-02-01T05:35:33.492Z,976.99
2018-02-01T05:36:33.483Z,977.01
2018-02-01T05:37:33.477Z,977.08
2018-02-01T05:38:33.472Z,977.14
2018-02-01T05:39:33.472Z,977.3
2018-02-01T05:40:33.458Z,977.27
2018-02-01T05:41:33.454Z,977.32
2018-02-01T05:42:33.444Z,977.27
2018-02-01T05:43:33.437Z,977.29
2018-02-01T05:44:33.435Z,977.3
2018-02-01T05:45:33.427Z,977.26
2018-02-01T05:46:33.416Z,977.32
2018-02-01T05:47:33.410Z,977.35
2018-02-01T05:48:33.402Z,977.41
2018-02-01T05:49:33.394Z,977.35
2018-02-01T05:50:33.388Z,977.34
2018-02-01T05:51:33.381Z,977.3
2018-02-01T05:52:33.371Z,977.29
2018-02-01T05:53:33.367Z,977.29
2018-02-01T05:54:33.356Z,977.29
2018-02-01T05:55:33.349Z,977.29
2018-02-01T05:56:33.345Z,977.34
2018-02-01T05:57:33.334Z,977.31
2018-02-01T05:58:33.325Z,977.33
2018-02-01T05:59:33.317Z,977.34
2018-02-01T06:00:33.311Z,977.35
2018-02-01T06:01:33.309Z,977.35
2018-02-01T06:02:33.295Z,977.4
2018-02-01T06:03:33.286Z,977.44
2018-02-01T06:04:33.279Z,977.47
2018-02-01T06:05:33.270Z,977.48
2018-02-01T06:06:33.262Z,977.54
2018-02-01T06:07:33.256Z,977.58
2018-02-01T06:08:33.248Z,977.58
2018-02-01T06:09:33.277Z,977.59
2018-02-01T06:10:33.231Z,977.55
2018-02-01T06:11:33.223Z,977.6
2018-02-01T06:12:33.215Z,977.61
2018-02-01T06:13:33.208Z,977.53
2018-02-01T06:22:34.824Z,977.56
2018-02-01T06:23:34.763Z,977.56
2018-02-01T06:24:34.753Z,977.58
2018-02-01T06:25:34.739Z,977.58
2018-02-01T06:26:34.727Z,977.59
2018-02-01T06:27:34.717Z,977.54
2018-02-01T06:28:34.709Z,977.48
2018-02-01T06:29:34.698Z,977.45
2018-02-01T06:30:34.686Z,977.4
2018-02-01T06:31:34.679Z,977.37
2018-02-01T06:32:34.668Z,977.39
2018-02-01T06:33:34.659Z,977.38
2018-02-01T06:34:34.652Z,977.36
2018-02-01T06:35:34.645Z,977.36
2018-02-01T06:36:34.633Z,977.31
2018-02-01T06:37:34.623Z,977.33
2018-02-01T06:38:34.618Z,977.27
2018-02-01T06:39:34.606Z,977.27
2018-02-01T06:40:34.597Z,977.28
2018-02-01T06:41:34.588Z,977.19
2018-02-01T06:42:34.580Z,977.3
2018-02-01T06:43:34.616Z,977.29
2018-02-01T06:44:34.563Z,977.24
2018-02-01T06:45:34.560Z,977.23
2018-02-01T06:46:34.547Z,977.19
2018-02-01T06:47:34.538Z,977.2
2018-02-01T06:48:34.531Z,977.26
2018-02-01T06:49:34.521Z,977.31
2018-02-01T06:50:34.514Z,977.28
2018-02-01T06:51:34.503Z,977.31
2018-02-01T06:52:34.497Z,977.32
2018-02-01T06:53:34.488Z,977.32
2018-02-01T06:54:34.480Z,977.28
2018-02-01T06:55:34.471Z,977.34
2018-02-01T06:56:34.464Z,977.32
2018-02-01T06:57:34.458Z,977.3
2018-02-01T06:58:34.448Z,977.34
2018-02-01T06:59:34.445Z,977.33
2018-02-01T07:00:34.433Z,977.3
2018-02-01T07:01:34.425Z,977.32
2018-02-01T07:02:34.421Z,977.33
2018-02-01T07:03:34.416Z,977.31
2018-02-01T07:04:34.464Z,977.26
2018-02-01T07:05:34.393Z,977.25
2018-02-01T07:06:34.384Z,977.26
2018-02-01T07:07:34.380Z,977.29
2018-02-01T07:08:34.370Z,977.32
2018-02-01T07:09:34.361Z,977.32
2018-02-01T07:10:34.357Z,977.38
2018-02-01T07:11:34.346Z,977.38
2018-02-01T07:12:34.340Z,977.42
2018-02-01T07:13:34.332Z,977.48
2018-02-01T07:14:34.324Z,977.52
2018-02-01T07:15:34.321Z,977.53
2018-02-01T07:16:34.307Z,977.5
2018-02-01T07:17:34.300Z,977.5
2018-02-01T07:18:34.293Z,977.54
2018-02-01T07:19:34.284Z,977.47
2018-02-01T07:20:34.275Z,977.49
2018-02-01T07:21:34.277Z,977.52
2018-02-01T07:22:34.262Z,977.54
2018-02-01T07:23:34.263Z,977.55
2018-02-01T07:24:34.247Z,977.51
2018-02-01T07:25:34.237Z,977.58
2018-02-01T07:26:34.232Z,977.56
2018-02-01T07:27:34.232Z,977.6
2018-02-01T07:28:34.215Z,977.67
2018-02-01T07:29:34.209Z,977.72
2018-02-01T07:30:34.201Z,977.71
2018-02-01T07:31:34.229Z,977.7
2018-02-01T07:32:34.185Z,977.7
2018-02-01T07:33:34.178Z,977.76
2018-02-01T07:34:34.175Z,977.71
2018-02-01T07:35:34.161Z,977.76
2018-02-01T07:36:34.154Z,977.67
2018-02-01T07:37:34.147Z,977.72
2018-02-01T07:38:34.140Z,977.67
2018-02-01T07:39:34.132Z,977.65
2018-02-01T07:40:34.123Z,977.67
2018-02-01T07:41:34.116Z,977.68
2018-02-01T07:42:34.108Z,977.76
2018-02-01T07:43:34.102Z,977.78
2018-02-01T07:44:34.093Z,977.82
2018-02-01T07:45:34.089Z,977.82
2018-02-01T07:46:34.079Z,977.76
2018-02-01T07:47:34.070Z,977.76
2018-02-01T07:48:34.065Z,977.81
2018-02-01T07:49:34.055Z,977.79
2018-02-01T07:50:34.048Z,977.78
2018-02-01T07:51:34.039Z,977.77
2018-02-01T07:52:34.033Z,977.78
2018-02-01T07:53:34.026Z,977.81
2018-02-01T07:54:34.018Z,977.79
2018-02-01T07:55:34.009Z,977.73
2018-02-01T07:56:34.002Z,977.69
2018-02-01T07:57:34.015Z,977.74
2018-02-01T07:58:33.987Z,977.75
2018-02-01T07:59:33.981Z,977.8
2018-02-01T08:00:33.972Z,977.78
2018-02-01T08:01:33.966Z,977.82
2018-02-01T08:02:33.957Z,977.85
2018-02-01T08:03:33.950Z,977.89
2018-02-01T08:04:33.945Z,977.92
2018-02-01T08:05:33.940Z,977.95
2018-02-01T08:06:33.927Z,977.89
2018-02-01T08:07:33.970Z,977.86
2018-02-01T08:08:33.918Z,977.79
2018-02-01T08:09:33.909Z,977.75
2018-02-01T08:10:33.911Z,977.79
2018-02-01T08:11:33.890Z,977.84
2018-02-01T08:12:33.883Z,977.8
2018-02-01T08:13:33.875Z,977.8
2018-02-01T08:14:33.868Z,977.82
2018-02-01T08:15:33.860Z,977.81
2018-02-01T08:16:33.859Z,977.83
2018-02-01T08:17:33.851Z,977.82
2018-02-01T08:18:33.840Z,977.85
2018-02-01T08:19:33.831Z,977.84
2018-02-01T08:20:33.834Z,977.85
2018-02-01T08:21:33.820Z,977.88
2018-02-01T08:22:33.808Z,977.92
2018-02-01T08:23:33.806Z,977.95
2018-02-01T08:24:33.797Z,977.98
2018-02-01T08:25:33.787Z,977.97
2018-02-01T08:26:33.782Z,977.99
2018-02-01T08:27:33.777Z,977.99
2018-02-01T08:28:33.767Z,977.96
2018-02-01T08:29:33.765Z,977.97
2018-02-01T08:30:33.755Z,978.06
2018-02-01T08:31:33.752Z,978.04
2018-02-01T08:32:33.743Z,978.05
2018-02-01T08:33:33.727Z,978
2018-02-01T08:34:33.719Z,977.98
2018-02-01T08:35:33.713Z,978.03
2018-02-01T08:36:33.705Z,977.98
2018-02-01T08:37:33.697Z,978.04
2018-02-01T08:38:33.693Z,978.08
2018-02-01T08:39:33.685Z,978.1
2018-02-01T08:40:33.683Z,978.11
2018-02-01T08:41:33.669Z,978.12
2018-02-01T08:42:33.664Z,978.12
2018-02-01T08:43:33.657Z,978.12
2018-02-01T08:44:33.650Z,978.14
2018-02-01T08:45:33.649Z,978.21
2018-02-01T08:46:33.636Z,978.25
2018-02-01T08:47:33.631Z,978.26
2018-02-01T08:48:33.630Z,978.29
2018-02-01T08:49:33.615Z,978.3
2018-02-01T08:50:33.607Z,978.26
2018-02-01T08:51:33.600Z,978.22
2018-02-01T08:52:33.594Z,978.21
2018-02-01T08:53:33.737Z,978.23
2018-02-01T08:54:33.583Z,978.24
2018-02-01T08:55:33.572Z,978.25
2018-02-01T08:56:33.566Z,978.27
2018-02-01T08:57:33.560Z,978.3
2018-02-01T08:58:33.553Z,978.35
2018-02-01T08:59:33.546Z,978.36
2018-02-01T09:00:33.543Z,978.31
2018-02-01T09:01:33.533Z,978.35
2018-02-01T09:02:33.527Z,978.32
2018-02-01T09:03:33.519Z,978.37
2018-02-01T09:04:33.513Z,978.33
2018-02-01T09:05:33.510Z,978.35
2018-02-01T09:06:33.500Z,978.37
2018-02-01T09:07:33.495Z,978.32
2018-02-01T09:08:33.487Z,978.34
2018-02-01T09:09:33.481Z,978.33
2018-02-01T09:10:33.474Z,978.29
2018-02-01T09:11:33.516Z,978.33
2018-02-01T09:12:33.462Z,978.34
2018-02-01T09:13:33.457Z,978.43
2018-02-01T09:14:33.451Z,978.45
2018-02-01T09:15:33.443Z,978.48
2018-02-01T09:16:33.438Z,978.46
2018-02-01T09:17:33.430Z,978.47
2018-02-01T09:18:33.428Z,978.52
2018-02-01T09:19:33.418Z,978.54
2018-02-01T09:20:33.414Z,978.56
2018-02-01T09:21:33.404Z,978.51
2018-02-01T09:22:33.399Z,978.51
2018-02-01T09:23:33.392Z,978.57
2018-02-01T09:24:33.387Z,978.58
2018-02-01T09:25:33.384Z,978.59
2018-02-01T09:26:33.374Z,978.59
2018-02-01T09:27:33.377Z,978.59
2018-02-01T09:28:33.360Z,978.64
2018-02-01T09:29:33.353Z,978.58
2018-02-01T09:30:33.354Z,978.61
2018-02-01T09:31:33.342Z,978.63
2018-02-01T09:32:33.335Z,978.65
2018-02-01T09:33:33.331Z,978.59
2018-02-01T09:34:33.323Z,978.61
2018-02-01T09:35:33.315Z,978.6
2018-02-01T09:36:33.311Z,978.62
2018-02-01T09:37:33.304Z,978.62
2018-02-01T09:38:33.298Z,978.63
2018-02-01T09:39:33.292Z,978.61
2018-02-01T09:40:33.283Z,978.61
2018-02-01T09:41:33.278Z,978.6
2018-02-01T09:42:33.271Z,978.6
2018-02-01T09:43:33.267Z,978.62
2018-02-01T09:44:33.260Z,978.6
2018-02-01T09:45:33.255Z,978.64
2018-02-01T09:46:33.251Z,978.61
2018-02-01T09:47:33.270Z,978.56
2018-02-01T09:48:33.239Z,978.57
2018-02-01T09:49:33.233Z,978.45
2018-02-01T09:50:33.223Z,978.51
2018-02-01T09:51:33.217Z,978.48
2018-02-01T09:52:33.212Z,978.54
2018-02-01T09:53:33.205Z,978.54
2018-02-01T09:54:33.201Z,978.6
2018-02-01T09:55:33.194Z,978.63
2018-02-01T09:56:33.189Z,978.65
2018-02-01T09:57:33.187Z,978.61
2018-02-01T09:58:33.193Z,978.63
2018-02-01T09:59:33.172Z,978.61
2018-02-01T10:00:33.168Z,978.6
2018-02-01T10:01:33.160Z,978.56
2018-02-01T10:02:33.155Z,978.58
2018-02-01T10:03:33.153Z,978.53
2018-02-01T10:04:33.144Z,978.57
2018-02-01T10:05:33.138Z,978.56
2018-02-01T10:06:33.132Z,978.59
2018-02-01T10:07:33.130Z,978.58
2018-02-01T10:08:33.122Z,978.57
2018-02-01T10:09:33.117Z,978.59
2018-02-01T10:10:33.113Z,978.61
2018-02-01T10:11:33.106Z,978.61
2018-02-01T10:12:33.103Z,978.63
2018-02-01T10:13:33.099Z,978.61
2018-02-01T10:14:33.122Z,978.64
2018-02-01T10:15:33.089Z,978.64
2018-02-01T10:16:33.082Z,978.71
2018-02-01T10:17:33.086Z,978.67
2018-02-01T10:18:33.067Z,978.73
2018-02-01T10:19:33.063Z,978.74
2018-02-01T10:20:33.057Z,978.75
2018-02-01T10:21:33.053Z,978.75
2018-02-01T10:22:33.047Z,978.71
2018-02-01T10:23:33.041Z,978.76
2018-02-01T10:53:25.510Z,978.86
2018-02-01T10:54:25.444Z,978.85
2018-02-01T10:55:25.428Z,978.91
2018-02-01T10:56:25.417Z,978.85
2018-02-01T10:57:25.407Z,978.85
2018-02-01T10:58:25.396Z,978.82
2018-02-01T10:59:25.390Z,978.82
2018-02-01T11:00:25.378Z,978.89
2018-02-01T11:01:25.370Z,978.89
2018-02-01T11:02:25.362Z,978.81
2018-02-01T11:03:25.358Z,978.75
2018-02-01T11:04:25.350Z,978.78
2018-02-01T11:05:25.345Z,978.78
2018-02-01T11:06:25.332Z,978.7
2018-02-01T11:07:25.326Z,978.69
2018-02-01T11:08:25.317Z,978.72
2018-02-01T11:09:25.309Z,978.68
2018-02-01T11:10:25.303Z,978.71
2018-02-01T11:11:25.299Z,978.74
2018-02-01T11:12:25.297Z,978.87
2018-02-01T11:13:25.285Z,978.88
2018-02-01T11:14:25.276Z,978.84
2018-02-01T11:15:25.276Z,978.81
2018-02-01T11:16:25.267Z,978.77
2018-02-01T11:17:25.259Z,978.8
2018-02-01T11:18:25.252Z,978.78
2018-02-01T11:19:25.244Z,978.75
2018-02-01T11:20:25.266Z,978.77
2018-02-01T11:21:25.233Z,978.79
2018-02-01T11:22:25.227Z,978.82
2018-02-01T11:23:25.220Z,978.79
2018-02-01T11:24:25.223Z,978.79
2018-02-01T11:25:25.262Z,978.76
2018-02-01T11:26:25.202Z,978.77
2018-02-01T11:27:25.208Z,978.76
2018-02-01T11:28:25.191Z,978.72
2018-02-01T11:29:25.183Z,978.66
2018-02-01T11:30:25.178Z,978.67
2018-02-01T11:31:25.191Z,978.64
2018-02-01T11:32:25.167Z,978.68
2018-02-01T11:33:25.161Z,978.66
2018-02-01T11:34:25.157Z,978.69
2018-02-01T11:35:25.149Z,978.75
2018-02-01T11:36:25.142Z,978.78
2018-02-01T11:37:25.137Z,978.77
2018-02-01T11:38:25.136Z,978.75
2018-02-01T11:39:25.125Z,978.68
2018-02-01T11:40:25.120Z,978.65
2018-02-01T11:41:25.115Z,978.66
2018-02-01T11:42:25.109Z,978.67
2018-02-01T11:43:25.103Z,978.55
2018-02-01T11:44:25.097Z,978.49
2018-02-01T11:45:25.092Z,978.56
2018-02-01T11:46:25.087Z,978.64
2018-02-01T11:47:25.079Z,978.58
2018-02-01T11:48:25.074Z,978.56
2018-02-01T11:49:25.071Z,978.59
2018-02-01T11:50:25.066Z,978.64
2018-02-01T11:51:25.058Z,978.64
2018-02-01T11:52:25.052Z,978.67
2018-02-01T11:53:25.046Z,978.72
2018-02-01T11:54:25.040Z,978.71
2018-02-01T11:55:25.068Z,978.79
2018-02-01T11:56:25.034Z,978.72
2018-02-01T11:57:25.033Z,978.67
2018-02-01T11:58:25.018Z,978.71
2018-02-01T11:59:25.011Z,978.65
2018-02-01T12:00:25.006Z,978.66
2018-02-01T12:01:25.002Z,978.6
2018-02-01T12:02:24.994Z,978.63
2018-02-01T12:03:24.989Z,978.63
2018-02-01T12:04:24.984Z,978.65
2018-02-01T12:05:25.056Z,978.62
2018-02-01T12:06:24.978Z,978.62
2018-02-01T12:07:24.969Z,978.65
2018-02-01T12:08:24.960Z,978.69
2018-02-01T12:09:24.957Z,978.69
2018-02-01T12:10:24.986Z,978.77
2018-02-01T12:11:24.946Z,978.76
2018-02-01T12:12:24.940Z,978.74
2018-02-01T12:13:24.937Z,978.75
2018-02-01T12:14:24.930Z,978.78
2018-02-01T12:15:24.959Z,978.77
2018-02-01T12:16:24.973Z,978.83
2018-02-01T12:17:24.916Z,978.88
2018-02-01T12:18:24.904Z,978.84
2018-02-01T12:19:24.900Z,978.84
2018-02-01T12:20:24.890Z,978.79
2018-02-01T12:21:24.896Z,978.86
2018-02-01T12:22:24.878Z,978.8
2018-02-01T12:23:24.922Z,978.8
2018-02-01T12:24:24.878Z,978.81
2018-02-01T12:25:24.859Z,978.76
2018-02-01T12:26:24.856Z,978.72
2018-02-01T12:27:24.852Z,978.68
2018-02-01T12:28:24.842Z,978.69
2018-02-01T12:29:24.837Z,978.73
2018-02-01T12:30:24.831Z,978.75
2018-02-01T12:31:24.823Z,978.75
2018-02-01T12:32:24.819Z,978.77
2018-02-01T12:33:24.865Z,978.73
2018-02-01T12:34:24.855Z,978.78
2018-02-01T12:35:24.799Z,978.72
2018-02-01T12:36:24.793Z,978.74
2018-02-01T12:37:24.788Z,978.74
2018-02-01T12:38:24.784Z,978.77
2018-02-01T12:39:24.774Z,978.8
2018-02-01T12:40:24.770Z,978.72
2018-02-01T12:41:24.765Z,978.82
2018-02-01T12:42:24.762Z,978.82
2018-02-01T12:43:24.762Z,978.76
2018-02-01T12:44:24.752Z,978.69
2018-02-01T12:45:24.739Z,978.64
2018-02-01T12:46:24.735Z,978.67
2018-02-01T12:47:24.735Z,978.66
2018-02-01T12:48:24.721Z,978.66
2018-02-01T12:49:24.714Z,978.62
2018-02-01T12:50:24.736Z,978.58
2018-02-01T12:51:24.703Z,978.6
2018-02-01T12:52:24.700Z,978.64
2018-02-01T12:53:24.695Z,978.64
2018-02-01T12:54:24.687Z,978.66
2018-02-01T12:55:24.683Z,978.68
2018-02-01T12:56:24.678Z,978.59
2018-02-01T12:57:24.671Z,978.6
2018-02-01T12:58:24.664Z,978.62
2018-02-01T12:59:24.660Z,978.61
2018-02-01T13:00:24.655Z,978.62
2018-02-01T13:01:24.646Z,978.65
2018-02-01T13:02:24.642Z,978.65
2018-02-01T13:03:24.636Z,978.67
2018-02-01T13:04:24.636Z,978.72
2018-02-01T13:05:24.629Z,978.77
2018-02-01T13:06:24.623Z,978.84
2018-02-01T13:07:24.619Z,978.9